sensor_id;sensor_type;location;lat;lon;timestamp;pressure;altitude;pressure_sealevel;temperature;humidity
52343;BME280;38277;51.972;4.624;2023-01-29T00:00:12;103240.0;;;5.9;77.5
52343;BME280;38277;51.972;4.624;2023-01-29T00:04:25;103220.0;;;5.8;77.5
52343;BME280;38277;51.972;4.624;2023-01-29T00:08:55;103210.0;;;5.8;77.5
52343;BME280;38277;51.972;4.624;2023-01-29T00:13:39;103210.0;;;5.8;78.0
52343;BME280;38277;51.972;4.624;2023-01-29T00:18:05;103200.0;;;5.8;77.5
52343;BME280;38277;51.972;4.624;2023-01-29T00:22:19;103180.0;;;5.8;78.0
52343;BME280;38277;51.972;4.624;2023-01-29T00:27:13;103190.0;;;5.8;78.0
52343;BME280;38277;51.972;4.624;2023-01-29T00:31:31;103190.0;;;5.8;77.0
52343;BME280;38277;51.972;4.624;2023-01-29T00:36:00;103190.0;;;5.8;76.5
52343;BME280;38277;51.972;4.624;2023-01-29T00:40:21;103190.0;;;5.8;77.0
52343;BME280;38277;51.972;4.624;2023-01-29T00:44:59;103180.0;;;5.8;77.0
52343;BME280;38277;51.972;4.624;2023-01-29T00:49:47;103180.0;;;5.8;76.5
52343;BME280;38277;51.972;4.624;2023-01-29T00:54:11;103170.0;;;5.8;76.5
52343;BME280;38277;51.972;4.624;2023-01-29T00:58:28;103170.0;;;5.8;76.0
52343;BME280;38277;51.972;4.624;2023-01-29T01:03:08;103150.0;;;5.7;76.5
52343;BME280;38277;51.972;4.624;2023-01-29T01:07:40;103150.0;;;5.8;76.5
52343;BME280;38277;51.972;4.624;2023-01-29T01:12:06;103150.0;;;5.8;77.0
52343;BME280;38277;51.972;4.624;2023-01-29T01:16:31;103150.0;;;5.8;76.5
52343;BME280;38277;51.972;4.624;2023-01-29T01:25:48;103160.0;;;5.8;76.5
52343;BME280;38277;51.972;4.624;2023-01-29T01:30:10;103160.0;;;5.8;76.0
52343;BME280;38277;51.972;4.624;2023-01-29T01:34:24;103180.0;;;5.8;76.0
52343;BME280;38277;51.972;4.624;2023-01-29T01:39:14;103180.0;;;5.8;76.5
52343;BME280;38277;51.972;4.624;2023-01-29T01:48:03;103180.0;;;5.8;76.0
52343;BME280;38277;51.972;4.624;2023-01-29T01:52:50;103180.0;;;5.8;76.5
52343;BME280;38277;51.972;4.624;2023-01-29T02:01:27;103170.0;;;5.8;76.0
52343;BME280;38277;51.972;4.624;2023-01-29T02:05:54;103170.0;;;5.8;76.0
52343;BME280;38277;51.972;4.624;2023-01-29T02:10:36;103170.0;;;5.8;76.0
52343;BME280;38277;51.972;4.624;2023-01-29T02:14:57;103160.0;;;5.8;76.5
52343;BME280;38277;51.972;4.624;2023-01-29T02:20:23;103150.0;;;5.8;76.0
52343;BME280;38277;51.972;4.624;2023-01-29T02:26:11;103160.0;;;5.8;76.0
52343;BME280;38277;51.972;4.624;2023-01-29T02:30:00;103160.0;;;5.8;76.0
52343;BME280;38277;51.972;4.624;2023-01-29T02:34:47;103170.0;;;5.8;76.0
52343;BME280;38277;51.972;4.624;2023-01-29T02:38:27;103160.0;;;5.8;75.5
52343;BME280;38277;51.972;4.624;2023-01-29T02:42:12;103160.0;;;5.8;76.0
52343;BME280;38277;51.972;4.624;2023-01-29T02:47:18;103160.0;;;5.8;75.0
52343;BME280;38277;51.972;4.624;2023-01-29T02:51:01;103160.0;;;5.8;76.0
52343;BME280;38277;51.972;4.624;2023-01-29T02:56:47;103160.0;;;5.8;76.0
52343;BME280;38277;51.972;4.624;2023-01-29T03:00:06;103170.0;;;5.8;76.0
52343;BME280;38277;51.972;4.624;2023-01-29T03:04:31;103160.0;;;5.8;76.5
52343;BME280;38277;51.972;4.624;2023-01-29T03:09:04;103150.0;;;5.7;76.5
52343;BME280;38277;51.972;4.624;2023-01-29T03:14:33;103140.0;;;5.7;76.5
52343;BME280;38277;51.972;4.624;2023-01-29T03:17:59;103160.0;;;5.7;75.5
52343;BME280;38277;51.972;4.624;2023-01-29T03:22:30;103140.0;;;5.6;76.0
52343;BME280;38277;51.972;4.624;2023-01-29T03:26:57;103160.0;;;5.6;76.5
52343;BME280;38277;51.972;4.624;2023-01-29T03:36:05;103140.0;;;5.6;76.5
52343;BME280;38277;51.972;4.624;2023-01-29T03:40:50;103130.0;;;5.6;76.5
52343;BME280;38277;51.972;4.624;2023-01-29T03:46:10;103130.0;;;5.6;76.5
52343;BME280;38277;51.972;4.624;2023-01-29T03:54:21;103130.0;;;5.6;76.5
52343;BME280;38277;51.972;4.624;2023-01-29T03:58:53;103120.0;;;5.5;76.5
52343;BME280;38277;51.972;4.624;2023-01-29T04:12:10;103100.0;;;5.5;76.5
52343;BME280;38277;51.972;4.624;2023-01-29T04:16:56;103100.0;;;5.5;76.5
52343;BME280;38277;51.972;4.624;2023-01-29T04:21:07;103100.0;;;5.5;76.5
52343;BME280;38277;51.972;4.624;2023-01-29T04:25:54;103100.0;;;5.5;76.5
52343;BME280;38277;51.972;4.624;2023-01-29T04:30:30;103090.0;;;5.5;77.0
52343;BME280;38277;51.972;4.624;2023-01-29T04:35:17;103090.0;;;5.5;76.5
52343;BME280;38277;51.972;4.624;2023-01-29T04:39:51;103090.0;;;5.5;76.5
52343;BME280;38277;51.972;4.624;2023-01-29T04:44:37;103090.0;;;5.5;76.0
52343;BME280;38277;51.972;4.624;2023-01-29T04:49:17;103070.0;;;5.5;76.5
52343;BME280;38277;51.972;4.624;2023-01-29T04:52:52;103070.0;;;5.5;76.5
52343;BME280;38277;51.972;4.624;2023-01-29T04:57:11;103060.0;;;5.5;76.0
52343;BME280;38277;51.972;4.624;2023-01-29T05:01:27;103060.0;;;5.5;76.0
52343;BME280;38277;51.972;4.624;2023-01-29T05:05:59;103060.0;;;5.5;76.0
52343;BME280;38277;51.972;4.624;2023-01-29T05:10:25;103050.0;;;5.5;75.5
52343;BME280;38277;51.972;4.624;2023-01-29T05:15:08;103040.0;;;5.5;75.5
52343;BME280;38277;51.972;4.624;2023-01-29T05:19:30;103050.0;;;5.5;75.5
52343;BME280;38277;51.972;4.624;2023-01-29T05:24:05;103050.0;;;5.5;75.0
52343;BME280;38277;51.972;4.624;2023-01-29T05:28:43;103050.0;;;5.5;75.0
52343;BME280;38277;51.972;4.624;2023-01-29T05:32:52;103050.0;;;5.5;75.5
52343;BME280;38277;51.972;4.624;2023-01-29T05:37:26;103040.0;;;5.5;75.0
52343;BME280;38277;51.972;4.624;2023-01-29T05:42:19;103030.0;;;5.5;75.0
52343;BME280;38277;51.972;4.624;2023-01-29T05:51:08;103030.0;;;5.6;75.0
52343;BME280;38277;51.972;4.624;2023-01-29T06:00:06;103030.0;;;5.6;75.0
52343;BME280;38277;51.972;4.624;2023-01-29T06:04:49;103040.0;;;5.6;75.0
52343;BME280;38277;51.972;4.624;2023-01-29T06:08:59;103030.0;;;5.6;75.5
52343;BME280;38277;51.972;4.624;2023-01-29T06:13:36;103030.0;;;5.6;75.0
52343;BME280;38277;51.972;4.624;2023-01-29T06:18:16;103030.0;;;5.6;75.5
52343;BME280;38277;51.972;4.624;2023-01-29T06:22:44;103020.0;;;5.6;75.0
52343;BME280;38277;51.972;4.624;2023-01-29T06:27:37;103010.0;;;5.6;75.0
52343;BME280;38277;51.972;4.624;2023-01-29T06:32:26;103020.0;;;5.5;75.5
52343;BME280;38277;51.972;4.624;2023-01-29T06:36:09;103000.0;;;5.6;75.0
52343;BME280;38277;51.972;4.624;2023-01-29T06:40:40;103000.0;;;5.6;75.5
52343;BME280;38277;51.972;4.624;2023-01-29T06:45:55;102980.0;;;5.6;75.0
52343;BME280;38277;51.972;4.624;2023-01-29T06:49:36;102990.0;;;5.6;75.0
52343;BME280;38277;51.972;4.624;2023-01-29T06:54:08;103000.0;;;5.5;75.0
52343;BME280;38277;51.972;4.624;2023-01-29T06:58:47;103000.0;;;5.5;75.0
52343;BME280;38277;51.972;4.624;2023-01-29T07:03:43;103000.0;;;5.5;75.0
52343;BME280;38277;51.972;4.624;2023-01-29T07:09:10;102990.0;;;5.5;74.5
52343;BME280;38277;51.972;4.624;2023-01-29T07:12:07;103000.0;;;5.5;75.0
52343;BME280;38277;51.972;4.624;2023-01-29T07:16:30;103000.0;;;5.5;75.5
52343;BME280;38277;51.972;4.624;2023-01-29T07:22:03;103010.0;;;5.6;75.5
52343;BME280;38277;51.972;4.624;2023-01-29T07:25:42;102990.0;;;5.6;75.0
52343;BME280;38277;51.972;4.624;2023-01-29T07:30:06;103000.0;;;5.6;74.5
52343;BME280;38277;51.972;4.624;2023-01-29T07:34:45;103000.0;;;5.6;74.5
52343;BME280;38277;51.972;4.624;2023-01-29T07:43:20;103010.0;;;5.6;75.0
52343;BME280;38277;51.972;4.624;2023-01-29T07:47:54;103000.0;;;5.6;75.0
52343;BME280;38277;51.972;4.624;2023-01-29T07:52:47;102990.0;;;5.6;74.5
52343;BME280;38277;51.972;4.624;2023-01-29T08:01:46;102980.0;;;5.6;74.5
52343;BME280;38277;51.972;4.624;2023-01-29T08:06:03;102980.0;;;5.6;74.5
52343;BME280;38277;51.972;4.624;2023-01-29T08:10:44;102980.0;;;5.6;74.5
52343;BME280;38277;51.972;4.624;2023-01-29T08:19:19;102980.0;;;5.6;75.0
52343;BME280;38277;51.972;4.624;2023-01-29T08:24:17;102970.0;;;5.6;74.5
52343;BME280;38277;51.972;4.624;2023-01-29T08:28:22;102960.0;;;5.6;74.5
52343;BME280;38277;51.972;4.624;2023-01-29T08:37:51;102960.0;;;5.6;74.5
52343;BME280;38277;51.972;4.624;2023-01-29T08:42:16;102960.0;;;5.6;74.5
52343;BME280;38277;51.972;4.624;2023-01-29T08:46:41;102960.0;;;5.6;74.5
52343;BME280;38277;51.972;4.624;2023-01-29T08:51:16;102950.0;;;5.7;75.0
52343;BME280;38277;51.972;4.624;2023-01-29T08:55:27;102940.0;;;5.7;74.5
52343;BME280;38277;51.972;4.624;2023-01-29T09:00:18;102940.0;;;5.8;74.0
52343;BME280;38277;51.972;4.624;2023-01-29T09:04:42;102940.0;;;5.8;74.0
52343;BME280;38277;51.972;4.624;2023-01-29T09:08:52;102930.0;;;5.8;74.0
52343;BME280;38277;51.972;4.624;2023-01-29T09:14:09;102940.0;;;5.9;74.0
52343;BME280;38277;51.972;4.624;2023-01-29T09:18:15;102940.0;;;5.9;74.0
52343;BME280;38277;51.972;4.624;2023-01-29T09:23:26;102940.0;;;5.9;74.0
52343;BME280;38277;51.972;4.624;2023-01-29T09:31:36;102930.0;;;6.0;73.5
52343;BME280;38277;51.972;4.624;2023-01-29T09:35:52;102930.0;;;6.1;73.0
52343;BME280;38277;51.972;4.624;2023-01-29T09:40:35;102930.0;;;6.1;73.5
52343;BME280;38277;51.972;4.624;2023-01-29T09:49:35;102930.0;;;6.2;73.0
52343;BME280;38277;51.972;4.624;2023-01-29T09:54:17;102930.0;;;6.2;73.0
52343;BME280;38277;51.972;4.624;2023-01-29T09:58:46;102930.0;;;6.2;73.0
52343;BME280;38277;51.972;4.624;2023-01-29T10:09:19;102910.0;;;6.2;73.0
52343;BME280;38277;51.972;4.624;2023-01-29T10:14:17;102910.0;;;6.2;73.0
52343;BME280;38277;51.972;4.624;2023-01-29T10:25:47;102900.0;;;6.3;73.0
52343;BME280;38277;51.972;4.624;2023-01-29T10:29:55;102890.0;;;6.3;73.0
52343;BME280;38277;51.972;4.624;2023-01-29T10:34:34;102890.0;;;6.3;73.0
52343;BME280;38277;51.972;4.624;2023-01-29T10:43:56;102890.0;;;6.4;73.0
52343;BME280;38277;51.972;4.624;2023-01-29T10:50:02;102880.0;;;6.4;73.0
52343;BME280;38277;51.972;4.624;2023-01-29T10:56:00;102880.0;;;6.4;72.5
52343;BME280;38277;51.972;4.624;2023-01-29T11:00:01;102860.0;;;6.4;72.5
52343;BME280;38277;51.972;4.624;2023-01-29T11:02:19;102850.0;;;6.4;73.0
52343;BME280;38277;51.972;4.624;2023-01-29T11:06:29;102850.0;;;6.4;73.0
52343;BME280;38277;51.972;4.624;2023-01-29T11:11:12;102840.0;;;6.4;73.0
52343;BME280;38277;51.972;4.624;2023-01-29T11:15:14;102850.0;;;6.4;73.0
52343;BME280;38277;51.972;4.624;2023-01-29T11:20:24;102850.0;;;6.5;73.0
52343;BME280;38277;51.972;4.624;2023-01-29T11:24:13;102840.0;;;6.5;73.0
52343;BME280;38277;51.972;4.624;2023-01-29T11:29:43;102830.0;;;6.5;73.0
52343;BME280;38277;51.972;4.624;2023-01-29T11:33:22;102830.0;;;6.5;73.5
52343;BME280;38277;51.972;4.624;2023-01-29T11:38:24;102830.0;;;6.5;73.0
52343;BME280;38277;51.972;4.624;2023-01-29T11:42:01;102820.0;;;6.5;73.5
52343;BME280;38277;51.972;4.624;2023-01-29T11:46:31;102820.0;;;6.6;73.5
52343;BME280;38277;51.972;4.624;2023-01-29T11:50:59;102820.0;;;6.7;73.5
52343;BME280;38277;51.972;4.624;2023-01-29T11:55:27;102800.0;;;6.7;73.5
52343;BME280;38277;51.972;4.624;2023-01-29T12:04:29;102790.0;;;6.7;73.0
52343;BME280;38277;51.972;4.624;2023-01-29T12:09:01;102780.0;;;6.7;73.0
52343;BME280;38277;51.972;4.624;2023-01-29T12:13:27;102770.0;;;6.7;72.5
52343;BME280;38277;51.972;4.624;2023-01-29T12:18:04;102770.0;;;6.8;72.5
52343;BME280;38277;51.972;4.624;2023-01-29T12:22:49;102760.0;;;6.8;72.5
52343;BME280;38277;51.972;4.624;2023-01-29T12:27:21;102740.0;;;6.8;72.5
52343;BME280;38277;51.972;4.624;2023-01-29T12:31:42;102730.0;;;6.9;72.5
52343;BME280;38277;51.972;4.624;2023-01-29T12:40:36;102700.0;;;7.1;72.5
52343;BME280;38277;51.972;4.624;2023-01-29T12:44:55;102690.0;;;7.2;72.0
52343;BME280;38277;51.972;4.624;2023-01-29T12:49:27;102670.0;;;7.4;71.0
52343;BME280;38277;51.972;4.624;2023-01-29T12:54:14;102660.0;;;7.5;71.0
52343;BME280;38277;51.972;4.624;2023-01-29T12:59:12;102670.0;;;7.5;71.0
52343;BME280;38277;51.972;4.624;2023-01-29T13:02:55;102660.0;;;7.5;70.5
52343;BME280;38277;51.972;4.624;2023-01-29T13:08:28;102640.0;;;7.4;70.5
52343;BME280;38277;51.972;4.624;2023-01-29T13:12:15;102630.0;;;7.3;71.0
52343;BME280;38277;51.972;4.624;2023-01-29T13:17:29;102620.0;;;7.3;70.5
52343;BME280;38277;51.972;4.624;2023-01-29T13:20:55;102600.0;;;7.2;70.5
52343;BME280;38277;51.972;4.624;2023-01-29T13:30:24;102580.0;;;7.3;71.0
52343;BME280;38277;51.972;4.624;2023-01-29T13:35:27;102580.0;;;7.3;71.0
52343;BME280;38277;51.972;4.624;2023-01-29T13:39:01;102570.0;;;7.4;70.5
52343;BME280;38277;51.972;4.624;2023-01-29T13:44:17;102570.0;;;7.5;70.0
52343;BME280;38277;51.972;4.624;2023-01-29T13:48:25;102560.0;;;7.5;70.5
52343;BME280;38277;51.972;4.624;2023-01-29T13:53:33;102560.0;;;7.5;71.0
52343;BME280;38277;51.972;4.624;2023-01-29T13:57:32;102560.0;;;7.6;71.0
52343;BME280;38277;51.972;4.624;2023-01-29T14:02:33;102550.0;;;7.6;71.0
52343;BME280;38277;51.972;4.624;2023-01-29T14:06:34;102550.0;;;7.6;71.0
52343;BME280;38277;51.972;4.624;2023-01-29T14:11:35;102550.0;;;7.6;70.5
52343;BME280;38277;51.972;4.624;2023-01-29T14:15:24;102530.0;;;7.6;70.5
52343;BME280;38277;51.972;4.624;2023-01-29T14:20:31;102530.0;;;7.6;71.0
52343;BME280;38277;51.972;4.624;2023-01-29T14:24:21;102530.0;;;7.6;71.5
52343;BME280;38277;51.972;4.624;2023-01-29T14:29:27;102520.0;;;7.7;71.0
52343;BME280;38277;51.972;4.624;2023-01-29T14:32:53;102530.0;;;7.6;71.0
52343;BME280;38277;51.972;4.624;2023-01-29T14:38:21;102510.0;;;7.6;71.5
52343;BME280;38277;51.972;4.624;2023-01-29T14:41:54;102520.0;;;7.5;71.5
52343;BME280;38277;51.972;4.624;2023-01-29T14:47:18;102520.0;;;7.4;72.5
52343;BME280;38277;51.972;4.624;2023-01-29T14:51:11;102520.0;;;7.3;73.0
52343;BME280;38277;51.972;4.624;2023-01-29T14:55:43;102510.0;;;7.3;73.0
52343;BME280;38277;51.972;4.624;2023-01-29T15:00:17;102500.0;;;7.2;73.5
52343;BME280;38277;51.972;4.624;2023-01-29T15:05:18;102500.0;;;7.2;73.5
52343;BME280;38277;51.972;4.624;2023-01-29T15:09:12;102480.0;;;7.1;73.5
52343;BME280;38277;51.972;4.624;2023-01-29T15:14:20;102500.0;;;7.0;73.5
52343;BME280;38277;51.972;4.624;2023-01-29T15:18:02;102480.0;;;7.0;74.0
52343;BME280;38277;51.972;4.624;2023-01-29T15:23:30;102490.0;;;6.9;74.5
52343;BME280;38277;51.972;4.624;2023-01-29T15:27:05;102490.0;;;6.9;74.5
52343;BME280;38277;51.972;4.624;2023-01-29T15:36:16;102480.0;;;6.7;76.5
52343;BME280;38277;51.972;4.624;2023-01-29T15:41:18;102470.0;;;6.6;77.5
52343;BME280;38277;51.972;4.624;2023-01-29T15:45:01;102470.0;;;6.5;78.5
52343;BME280;38277;51.972;4.624;2023-01-29T15:49:28;102470.0;;;6.5;78.5
52343;BME280;38277;51.972;4.624;2023-01-29T15:54:49;102480.0;;;6.4;79.0
52343;BME280;38277;51.972;4.624;2023-01-29T15:59:20;102470.0;;;6.4;79.0
52343;BME280;38277;51.972;4.624;2023-01-29T16:02:53;102470.0;;;6.4;79.0
52343;BME280;38277;51.972;4.624;2023-01-29T16:07:47;102460.0;;;6.4;78.0
52343;BME280;38277;51.972;4.624;2023-01-29T16:11:52;102470.0;;;6.4;78.0
52343;BME280;38277;51.972;4.624;2023-01-29T16:21:02;102470.0;;;6.4;77.5
52343;BME280;38277;51.972;4.624;2023-01-29T16:25:20;102480.0;;;6.4;77.5
52343;BME280;38277;51.972;4.624;2023-01-29T16:48:33;102440.0;;;6.3;76.5
52343;BME280;38277;51.972;4.624;2023-01-29T16:56:57;102450.0;;;6.3;76.5
52343;BME280;38277;51.972;4.624;2023-01-29T17:01:36;102430.0;;;6.3;76.5
52343;BME280;38277;51.972;4.624;2023-01-29T17:05:58;102440.0;;;6.4;77.0
52343;BME280;38277;51.972;4.624;2023-01-29T17:14:59;102420.0;;;6.3;76.5
52343;BME280;38277;51.972;4.624;2023-01-29T17:19:30;102410.0;;;6.4;76.5
52343;BME280;38277;51.972;4.624;2023-01-29T17:23:56;102400.0;;;6.3;77.0
52343;BME280;38277;51.972;4.624;2023-01-29T17:33:13;102400.0;;;6.3;77.0
52343;BME280;38277;51.972;4.624;2023-01-29T17:37:43;102400.0;;;6.3;77.5
52343;BME280;38277;51.972;4.624;2023-01-29T17:42:02;102390.0;;;6.3;77.5
52343;BME280;38277;51.972;4.624;2023-01-29T17:46:22;102390.0;;;6.3;78.0
52343;BME280;38277;51.972;4.624;2023-01-29T17:51:16;102360.0;;;6.3;78.0
52343;BME280;38277;51.972;4.624;2023-01-29T17:55:31;102370.0;;;6.3;78.0
52343;BME280;38277;51.972;4.624;2023-01-29T18:00:00;102360.0;;;6.3;78.5
52343;BME280;38277;51.972;4.624;2023-01-29T18:05:04;102370.0;;;6.3;78.5
52343;BME280;38277;51.972;4.624;2023-01-29T18:09:04;102340.0;;;6.3;79.0
52343;BME280;38277;51.972;4.624;2023-01-29T18:13:36;102350.0;;;6.3;79.5
52343;BME280;38277;51.972;4.624;2023-01-29T18:18:05;102340.0;;;6.3;79.5
52343;BME280;38277;51.972;4.624;2023-01-29T18:23:05;102350.0;;;6.3;80.0
52343;BME280;38277;51.972;4.624;2023-01-29T18:27:01;102330.0;;;6.3;80.0
52343;BME280;38277;51.972;4.624;2023-01-29T18:31:47;102330.0;;;6.4;80.5
52343;BME280;38277;51.972;4.624;2023-01-29T18:35:49;102320.0;;;6.4;80.5
52343;BME280;38277;51.972;4.624;2023-01-29T18:40:35;102310.0;;;6.4;80.5
52343;BME280;38277;51.972;4.624;2023-01-29T18:45:55;102310.0;;;6.4;80.5
52343;BME280;38277;51.972;4.624;2023-01-29T18:49:48;102290.0;;;6.5;80.5
52343;BME280;38277;51.972;4.624;2023-01-29T18:53:55;102290.0;;;6.5;80.5
52343;BME280;38277;51.972;4.624;2023-01-29T18:58:42;102260.0;;;6.5;80.5
52343;BME280;38277;51.972;4.624;2023-01-29T19:03:48;102260.0;;;6.5;80.5
52343;BME280;38277;51.972;4.624;2023-01-29T19:07:45;102260.0;;;6.5;80.5
52343;BME280;38277;51.972;4.624;2023-01-29T19:11:54;102250.0;;;6.5;81.0
52343;BME280;38277;51.972;4.624;2023-01-29T19:16:46;102260.0;;;6.4;80.5
52343;BME280;38277;51.972;4.624;2023-01-29T19:22:00;102240.0;;;6.4;80.5
52343;BME280;38277;51.972;4.624;2023-01-29T19:25:27;102230.0;;;6.4;80.5
52343;BME280;38277;51.972;4.624;2023-01-29T19:30:49;102230.0;;;6.4;80.5
52343;BME280;38277;51.972;4.624;2023-01-29T19:34:30;102230.0;;;6.4;80.5
52343;BME280;38277;51.972;4.624;2023-01-29T19:39:59;102240.0;;;6.5;81.0
52343;BME280;38277;51.972;4.624;2023-01-29T19:43:48;102240.0;;;6.5;81.0
52343;BME280;38277;51.972;4.624;2023-01-29T19:48:15;102230.0;;;6.5;81.0
52343;BME280;38277;51.972;4.624;2023-01-29T19:52:21;102220.0;;;6.5;81.5
52343;BME280;38277;51.972;4.624;2023-01-29T19:58:01;102230.0;;;6.5;81.5
52343;BME280;38277;51.972;4.624;2023-01-29T20:01:21;102250.0;;;6.6;82.0
52343;BME280;38277;51.972;4.624;2023-01-29T20:05:50;102220.0;;;6.6;82.0
52343;BME280;38277;51.972;4.624;2023-01-29T20:10:32;102220.0;;;6.6;82.5
52343;BME280;38277;51.972;4.624;2023-01-29T20:19:25;102200.0;;;6.7;83.5
52343;BME280;38277;51.972;4.624;2023-01-29T20:24:17;102190.0;;;6.8;83.0
52343;BME280;38277;51.972;4.624;2023-01-29T20:28:39;102200.0;;;6.7;83.5
52343;BME280;38277;51.972;4.624;2023-01-29T20:33:17;102200.0;;;6.8;84.0
52343;BME280;38277;51.972;4.624;2023-01-29T20:37:35;102220.0;;;6.8;84.0
52343;BME280;38277;51.972;4.624;2023-01-29T20:42:08;102210.0;;;6.8;84.5
52343;BME280;38277;51.972;4.624;2023-01-29T20:46:31;102210.0;;;6.9;84.5
52343;BME280;38277;51.972;4.624;2023-01-29T20:55:30;102210.0;;;6.9;85.0
52343;BME280;38277;51.972;4.624;2023-01-29T21:00:18;102190.0;;;7.0;85.5
52343;BME280;38277;51.972;4.624;2023-01-29T21:04:36;102180.0;;;7.0;85.5
52343;BME280;38277;51.972;4.624;2023-01-29T21:09:14;102190.0;;;7.0;85.5
52343;BME280;38277;51.972;4.624;2023-01-29T21:18:17;102210.0;;;7.1;85.5
52343;BME280;38277;51.972;4.624;2023-01-29T21:22:22;102200.0;;;7.1;85.5
52343;BME280;38277;51.972;4.624;2023-01-29T21:26:59;102200.0;;;7.2;86.0
52343;BME280;38277;51.972;4.624;2023-01-29T21:31:20;102190.0;;;7.2;86.0
52343;BME280;38277;51.972;4.624;2023-01-29T21:36:36;102180.0;;;7.2;86.5
52343;BME280;38277;51.972;4.624;2023-01-29T21:40:46;102170.0;;;7.3;87.0
52343;BME280;38277;51.972;4.624;2023-01-29T21:44:51;102120.0;;;7.3;87.0
52343;BME280;38277;51.972;4.624;2023-01-29T21:49:31;102100.0;;;7.4;87.0
52343;BME280;38277;51.972;4.624;2023-01-29T21:54:59;102050.0;;;7.4;87.0
52343;BME280;38277;51.972;4.624;2023-01-29T21:58:48;102050.0;;;7.4;87.0
52343;BME280;38277;51.972;4.624;2023-01-29T22:03:12;102080.0;;;7.4;87.5
52343;BME280;38277;51.972;4.624;2023-01-29T22:07:26;102100.0;;;7.5;88.0
52343;BME280;38277;51.972;4.624;2023-01-29T22:11:49;102090.0;;;7.5;88.5
52343;BME280;38277;51.972;4.624;2023-01-29T22:16:27;102080.0;;;7.5;88.5
52343;BME280;38277;51.972;4.624;2023-01-29T22:25:32;102080.0;;;7.7;89.0
52343;BME280;38277;51.972;4.624;2023-01-29T22:30:00;102080.0;;;7.8;89.0
52343;BME280;38277;51.972;4.624;2023-01-29T22:34:21;102080.0;;;7.8;89.5
52343;BME280;38277;51.972;4.624;2023-01-29T22:39:09;102050.0;;;7.9;89.5
52343;BME280;38277;51.972;4.624;2023-01-29T22:43:27;102040.0;;;7.9;89.5
52343;BME280;38277;51.972;4.624;2023-01-29T22:47:54;102030.0;;;8.0;89.5
52343;BME280;38277;51.972;4.624;2023-01-29T22:52:24;102050.0;;;8.1;89.5
52343;BME280;38277;51.972;4.624;2023-01-29T23:01:32;102050.0;;;8.2;90.0
52343;BME280;38277;51.972;4.624;2023-01-29T23:06:11;102020.0;;;8.3;90.0
52343;BME280;38277;51.972;4.624;2023-01-29T23:10:48;102010.0;;;8.5;90.0
52343;BME280;38277;51.972;4.624;2023-01-29T23:15:10;102000.0;;;8.6;90.0
52343;BME280;38277;51.972;4.624;2023-01-29T23:20:27;102000.0;;;8.7;90.0
52343;BME280;38277;51.972;4.624;2023-01-29T23:23:59;102000.0;;;8.8;89.5
52343;BME280;38277;51.972;4.624;2023-01-29T23:28:39;102000.0;;;8.9;89.0
52343;BME280;38277;51.972;4.624;2023-01-29T23:33:06;102000.0;;;8.9;88.5
52343;BME280;38277;51.972;4.624;2023-01-29T23:38:33;101970.0;;;9.0;88.0
52343;BME280;38277;51.972;4.624;2023-01-29T23:42:18;101980.0;;;9.1;87.5
52343;BME280;38277;51.972;4.624;2023-01-29T23:47:09;101970.0;;;9.1;87.5
52343;BME280;38277;51.972;4.624;2023-01-29T23:50:57;101940.0;;;9.2;87.0
52343;BME280;38277;51.972;4.624;2023-01-29T23:56:11;101950.0;;;9.3;86.5
